sensor_id;sensor_type;location;lat;lon;timestamp;P1;durP1;ratioP1;P2;durP2;ratioP2
8893;SDS011;4483;48.622;9.230;2023-07-31T00:00:38;2.27;;;1.20;;
8893;SDS011;4483;48.622;9.230;2023-07-31T00:03:05;2.13;;;1.40;;
8893;SDS011;4483;48.622;9.230;2023-07-31T00:05:31;1.40;;;1.30;;
8893;SDS011;4483;48.622;9.230;2023-07-31T00:07:58;4.63;;;1.60;;
8893;SDS011;4483;48.622;9.230;2023-07-31T00:10:24;4.37;;;1.57;;
8893;SDS011;4483;48.622;9.230;2023-07-31T00:12:51;2.83;;;1.33;;
8893;SDS011;4483;48.622;9.230;2023-07-31T00:15:18;1.67;;;1.30;;
8893;SDS011;4483;48.622;9.230;2023-07-31T00:17:46;3.80;;;1.43;;
8893;SDS011;4483;48.622;9.230;2023-07-31T00:20:13;1.63;;;1.37;;
8893;SDS011;4483;48.622;9.230;2023-07-31T00:22:39;1.97;;;1.60;;
8893;SDS011;4483;48.622;9.230;2023-07-31T00:25:06;1.57;;;1.43;;
8893;SDS011;4483;48.622;9.230;2023-07-31T00:27:33;1.70;;;1.20;;
8893;SDS011;4483;48.622;9.230;2023-07-31T00:29:59;3.20;;;1.50;;
8893;SDS011;4483;48.622;9.230;2023-07-31T00:32:26;1.57;;;1.20;;
8893;SDS011;4483;48.622;9.230;2023-07-31T00:34:54;3.13;;;1.43;;
8893;SDS011;4483;48.622;9.230;2023-07-31T00:37:21;2.17;;;1.27;;
8893;SDS011;4483;48.622;9.230;2023-07-31T00:39:47;3.37;;;1.60;;
8893;SDS011;4483;48.622;9.230;2023-07-31T00:42:14;3.27;;;1.30;;
8893;SDS011;4483;48.622;9.230;2023-07-31T00:44:41;4.00;;;1.50;;
8893;SDS011;4483;48.622;9.230;2023-07-31T00:47:07;1.53;;;1.13;;
8893;SDS011;4483;48.622;9.230;2023-07-31T00:49:34;3.63;;;1.50;;
8893;SDS011;4483;48.622;9.230;2023-07-31T00:52:02;1.80;;;1.30;;
8893;SDS011;4483;48.622;9.230;2023-07-31T00:54:29;4.63;;;1.37;;
8893;SDS011;4483;48.622;9.230;2023-07-31T00:56:56;1.00;;;1.00;;
8893;SDS011;4483;48.622;9.230;2023-07-31T00:59:23;1.60;;;1.50;;
8893;SDS011;4483;48.622;9.230;2023-07-31T01:01:50;3.33;;;1.60;;
8893;SDS011;4483;48.622;9.230;2023-07-31T01:04:17;3.43;;;1.20;;
8893;SDS011;4483;48.622;9.230;2023-07-31T01:06:44;1.37;;;1.20;;
8893;SDS011;4483;48.622;9.230;2023-07-31T01:09:20;1.10;;;1.10;;
8893;SDS011;4483;48.622;9.230;2023-07-31T01:11:56;2.03;;;1.23;;
8893;SDS011;4483;48.622;9.230;2023-07-31T01:14:24;5.33;;;1.50;;
8893;SDS011;4483;48.622;9.230;2023-07-31T01:16:51;5.70;;;1.33;;
8893;SDS011;4483;48.622;9.230;2023-07-31T01:19:18;1.67;;;1.17;;
8893;SDS011;4483;48.622;9.230;2023-07-31T01:21:53;8.07;;;1.73;;
8893;SDS011;4483;48.622;9.230;2023-07-31T01:24:35;1.80;;;1.60;;
8893;SDS011;4483;48.622;9.230;2023-07-31T01:27:17;3.03;;;1.30;;
8893;SDS011;4483;48.622;9.230;2023-07-31T01:29:51;1.60;;;1.50;;
8893;SDS011;4483;48.622;9.230;2023-07-31T01:32:22;3.60;;;1.47;;
8893;SDS011;4483;48.622;9.230;2023-07-31T01:34:49;1.60;;;1.20;;
8893;SDS011;4483;48.622;9.230;2023-07-31T01:37:16;0.90;;;0.90;;
8893;SDS011;4483;48.622;9.230;2023-07-31T01:39:43;2.07;;;1.50;;
8893;SDS011;4483;48.622;9.230;2023-07-31T01:42:10;4.83;;;1.50;;
8893;SDS011;4483;48.622;9.230;2023-07-31T01:44:38;1.43;;;1.33;;
8893;SDS011;4483;48.622;9.230;2023-07-31T01:47:05;1.93;;;1.37;;
8893;SDS011;4483;48.622;9.230;2023-07-31T01:49:32;1.27;;;1.17;;
8893;SDS011;4483;48.622;9.230;2023-07-31T01:51:58;1.77;;;1.67;;
8893;SDS011;4483;48.622;9.230;2023-07-31T01:54:25;1.33;;;1.30;;
8893;SDS011;4483;48.622;9.230;2023-07-31T01:56:51;4.97;;;1.20;;
8893;SDS011;4483;48.622;9.230;2023-07-31T01:59:18;5.80;;;1.40;;
8893;SDS011;4483;48.622;9.230;2023-07-31T02:01:46;3.63;;;1.17;;
8893;SDS011;4483;48.622;9.230;2023-07-31T02:04:13;1.30;;;1.20;;
8893;SDS011;4483;48.622;9.230;2023-07-31T02:06:39;1.30;;;1.20;;
8893;SDS011;4483;48.622;9.230;2023-07-31T02:09:06;2.83;;;1.47;;
8893;SDS011;4483;48.622;9.230;2023-07-31T02:11:32;3.90;;;1.80;;
8893;SDS011;4483;48.622;9.230;2023-07-31T02:13:59;2.00;;;1.40;;
8893;SDS011;4483;48.622;9.230;2023-07-31T02:16:26;2.63;;;1.20;;
8893;SDS011;4483;48.622;9.230;2023-07-31T02:18:54;1.33;;;1.23;;
8893;SDS011;4483;48.622;9.230;2023-07-31T02:21:20;3.23;;;1.37;;
8893;SDS011;4483;48.622;9.230;2023-07-31T02:23:47;1.60;;;1.17;;
8893;SDS011;4483;48.622;9.230;2023-07-31T02:26:13;1.37;;;1.27;;
8893;SDS011;4483;48.622;9.230;2023-07-31T02:28:40;2.57;;;1.90;;
8893;SDS011;4483;48.622;9.230;2023-07-31T02:31:08;4.47;;;1.20;;
8893;SDS011;4483;48.622;9.230;2023-07-31T02:33:34;1.50;;;1.40;;
8893;SDS011;4483;48.622;9.230;2023-07-31T02:36:02;7.37;;;1.47;;
8893;SDS011;4483;48.622;9.230;2023-07-31T02:38:29;1.30;;;1.20;;
8893;SDS011;4483;48.622;9.230;2023-07-31T02:40:56;2.20;;;1.20;;
8893;SDS011;4483;48.622;9.230;2023-07-31T02:43:23;4.97;;;1.57;;
8893;SDS011;4483;48.622;9.230;2023-07-31T02:45:50;8.83;;;1.70;;
8893;SDS011;4483;48.622;9.230;2023-07-31T02:48:17;1.40;;;1.30;;
8893;SDS011;4483;48.622;9.230;2023-07-31T02:50:44;4.00;;;1.40;;
8893;SDS011;4483;48.622;9.230;2023-07-31T02:53:12;4.23;;;1.23;;
8893;SDS011;4483;48.622;9.230;2023-07-31T02:55:39;1.43;;;1.30;;
8893;SDS011;4483;48.622;9.230;2023-07-31T02:58:06;3.63;;;1.50;;
8893;SDS011;4483;48.622;9.230;2023-07-31T03:00:32;2.43;;;1.50;;
8893;SDS011;4483;48.622;9.230;2023-07-31T03:02:59;3.03;;;1.73;;
8893;SDS011;4483;48.622;9.230;2023-07-31T03:05:25;3.20;;;1.40;;
8893;SDS011;4483;48.622;9.230;2023-07-31T03:07:52;1.50;;;1.20;;
8893;SDS011;4483;48.622;9.230;2023-07-31T03:10:20;2.00;;;1.20;;
8893;SDS011;4483;48.622;9.230;2023-07-31T03:12:47;1.40;;;1.30;;
8893;SDS011;4483;48.622;9.230;2023-07-31T03:15:13;4.60;;;1.33;;
8893;SDS011;4483;48.622;9.230;2023-07-31T03:17:40;5.77;;;1.40;;
8893;SDS011;4483;48.622;9.230;2023-07-31T03:20:07;3.53;;;1.30;;
8893;SDS011;4483;48.622;9.230;2023-07-31T03:22:34;4.07;;;1.40;;
8893;SDS011;4483;48.622;9.230;2023-07-31T03:25:01;1.37;;;1.37;;
8893;SDS011;4483;48.622;9.230;2023-07-31T03:27:29;1.73;;;1.63;;
8893;SDS011;4483;48.622;9.230;2023-07-31T03:29:56;1.63;;;1.40;;
8893;SDS011;4483;48.622;9.230;2023-07-31T03:32:22;2.50;;;1.47;;
8893;SDS011;4483;48.622;9.230;2023-07-31T03:34:49;2.70;;;1.30;;
8893;SDS011;4483;48.622;9.230;2023-07-31T03:37:16;1.40;;;1.27;;
8893;SDS011;4483;48.622;9.230;2023-07-31T03:39:42;1.40;;;1.30;;
8893;SDS011;4483;48.622;9.230;2023-07-31T03:42:09;1.57;;;1.27;;
8893;SDS011;4483;48.622;9.230;2023-07-31T03:44:37;2.17;;;1.37;;
8893;SDS011;4483;48.622;9.230;2023-07-31T03:47:03;5.77;;;1.80;;
8893;SDS011;4483;48.622;9.230;2023-07-31T03:49:31;2.73;;;1.63;;
8893;SDS011;4483;48.622;9.230;2023-07-31T03:51:57;3.17;;;1.40;;
8893;SDS011;4483;48.622;9.230;2023-07-31T03:54:24;2.23;;;1.27;;
8893;SDS011;4483;48.622;9.230;2023-07-31T03:56:51;2.50;;;1.60;;
8893;SDS011;4483;48.622;9.230;2023-07-31T03:59:17;2.03;;;1.40;;
8893;SDS011;4483;48.622;9.230;2023-07-31T04:01:45;1.30;;;1.20;;
8893;SDS011;4483;48.622;9.230;2023-07-31T04:04:12;1.50;;;1.40;;
8893;SDS011;4483;48.622;9.230;2023-07-31T04:06:38;1.20;;;1.20;;
8893;SDS011;4483;48.622;9.230;2023-07-31T04:09:05;7.10;;;1.73;;
8893;SDS011;4483;48.622;9.230;2023-07-31T04:11:31;1.70;;;1.50;;
8893;SDS011;4483;48.622;9.230;2023-07-31T04:13:58;2.50;;;1.70;;
8893;SDS011;4483;48.622;9.230;2023-07-31T04:16:25;7.27;;;1.90;;
8893;SDS011;4483;48.622;9.230;2023-07-31T04:18:53;2.13;;;1.50;;
8893;SDS011;4483;48.622;9.230;2023-07-31T04:21:19;1.50;;;1.40;;
8893;SDS011;4483;48.622;9.230;2023-07-31T04:23:46;1.60;;;1.50;;
8893;SDS011;4483;48.622;9.230;2023-07-31T04:26:12;5.10;;;1.70;;
8893;SDS011;4483;48.622;9.230;2023-07-31T04:28:39;4.07;;;1.40;;
8893;SDS011;4483;48.622;9.230;2023-07-31T04:31:06;1.80;;;1.60;;
8893;SDS011;4483;48.622;9.230;2023-07-31T04:33:32;3.80;;;1.60;;
8893;SDS011;4483;48.622;9.230;2023-07-31T04:36:00;3.63;;;1.60;;
8893;SDS011;4483;48.622;9.230;2023-07-31T04:38:27;1.93;;;1.57;;
8893;SDS011;4483;48.622;9.230;2023-07-31T04:40:53;1.90;;;1.80;;
8893;SDS011;4483;48.622;9.230;2023-07-31T04:43:20;1.77;;;1.50;;
8893;SDS011;4483;48.622;9.230;2023-07-31T04:45:47;3.67;;;1.67;;
8893;SDS011;4483;48.622;9.230;2023-07-31T04:48:15;4.90;;;1.70;;
8893;SDS011;4483;48.622;9.230;2023-07-31T04:50:42;4.10;;;1.40;;
8893;SDS011;4483;48.622;9.230;2023-07-31T04:53:10;9.53;;;1.97;;
8893;SDS011;4483;48.622;9.230;2023-07-31T04:55:37;2.73;;;1.87;;
8893;SDS011;4483;48.622;9.230;2023-07-31T04:58:03;2.13;;;1.37;;
8893;SDS011;4483;48.622;9.230;2023-07-31T05:00:30;1.40;;;1.30;;
8893;SDS011;4483;48.622;9.230;2023-07-31T05:02:56;3.27;;;1.70;;
8893;SDS011;4483;48.622;9.230;2023-07-31T05:05:23;1.70;;;1.50;;
8893;SDS011;4483;48.622;9.230;2023-07-31T05:07:50;2.07;;;1.30;;
8893;SDS011;4483;48.622;9.230;2023-07-31T05:10:18;2.57;;;1.30;;
8893;SDS011;4483;48.622;9.230;2023-07-31T05:12:44;3.90;;;1.53;;
8893;SDS011;4483;48.622;9.230;2023-07-31T05:15:11;2.07;;;1.70;;
8893;SDS011;4483;48.622;9.230;2023-07-31T05:17:37;7.33;;;1.83;;
8893;SDS011;4483;48.622;9.230;2023-07-31T05:20:05;1.70;;;1.43;;
8893;SDS011;4483;48.622;9.230;2023-07-31T05:22:32;4.20;;;1.47;;
8893;SDS011;4483;48.622;9.230;2023-07-31T05:24:59;3.83;;;1.70;;
8893;SDS011;4483;48.622;9.230;2023-07-31T05:27:27;2.63;;;1.37;;
8893;SDS011;4483;48.622;9.230;2023-07-31T05:29:54;1.87;;;1.53;;
8893;SDS011;4483;48.622;9.230;2023-07-31T05:32:20;1.50;;;1.40;;
8893;SDS011;4483;48.622;9.230;2023-07-31T05:34:47;2.50;;;1.80;;
8893;SDS011;4483;48.622;9.230;2023-07-31T05:37:13;4.10;;;1.87;;
8893;SDS011;4483;48.622;9.230;2023-07-31T05:39:40;3.57;;;1.73;;
8893;SDS011;4483;48.622;9.230;2023-07-31T05:42:07;3.67;;;1.80;;
8893;SDS011;4483;48.622;9.230;2023-07-31T05:44:35;5.77;;;1.77;;
8893;SDS011;4483;48.622;9.230;2023-07-31T05:47:02;1.80;;;1.70;;
8893;SDS011;4483;48.622;9.230;2023-07-31T05:49:28;4.30;;;1.67;;
8893;SDS011;4483;48.622;9.230;2023-07-31T05:51:55;2.30;;;1.53;;
8893;SDS011;4483;48.622;9.230;2023-07-31T05:54:22;2.80;;;1.60;;
8893;SDS011;4483;48.622;9.230;2023-07-31T05:56:48;2.33;;;1.70;;
8893;SDS011;4483;48.622;9.230;2023-07-31T05:59:15;2.33;;;1.70;;
8893;SDS011;4483;48.622;9.230;2023-07-31T06:01:44;2.80;;;1.40;;
8893;SDS011;4483;48.622;9.230;2023-07-31T06:04:10;3.87;;;1.37;;
8893;SDS011;4483;48.622;9.230;2023-07-31T06:06:37;1.77;;;1.40;;
8893;SDS011;4483;48.622;9.230;2023-07-31T06:09:04;2.93;;;1.53;;
8893;SDS011;4483;48.622;9.230;2023-07-31T06:11:32;3.90;;;1.90;;
8893;SDS011;4483;48.622;9.230;2023-07-31T06:13:59;1.63;;;1.20;;
8893;SDS011;4483;48.622;9.230;2023-07-31T06:16:25;2.00;;;1.30;;
8893;SDS011;4483;48.622;9.230;2023-07-31T06:18:53;2.40;;;1.50;;
8893;SDS011;4483;48.622;9.230;2023-07-31T06:21:20;2.13;;;1.60;;
8893;SDS011;4483;48.622;9.230;2023-07-31T06:23:47;2.95;;;1.50;;
8893;SDS011;4483;48.622;9.230;2023-07-31T06:26:14;2.70;;;1.57;;
8893;SDS011;4483;48.622;9.230;2023-07-31T06:28:41;2.47;;;1.50;;
8893;SDS011;4483;48.622;9.230;2023-07-31T06:31:07;3.50;;;1.63;;
8893;SDS011;4483;48.622;9.230;2023-07-31T06:33:34;2.33;;;1.43;;
8893;SDS011;4483;48.622;9.230;2023-07-31T06:36:02;2.05;;;1.50;;
8893;SDS011;4483;48.622;9.230;2023-07-31T06:38:29;2.05;;;1.73;;
8893;SDS011;4483;48.622;9.230;2023-07-31T06:40:56;4.93;;;1.60;;
8893;SDS011;4483;48.622;9.230;2023-07-31T06:43:22;2.75;;;1.70;;
8893;SDS011;4483;48.622;9.230;2023-07-31T06:45:49;3.90;;;1.83;;
8893;SDS011;4483;48.622;9.230;2023-07-31T06:48:16;3.75;;;1.67;;
8893;SDS011;4483;48.622;9.230;2023-07-31T06:50:43;1.65;;;1.30;;
8893;SDS011;4483;48.622;9.230;2023-07-31T06:53:11;5.10;;;1.63;;
8893;SDS011;4483;48.622;9.230;2023-07-31T06:55:37;1.63;;;1.50;;
8893;SDS011;4483;48.622;9.230;2023-07-31T06:58:04;3.58;;;1.60;;
8893;SDS011;4483;48.622;9.230;2023-07-31T07:00:30;1.55;;;1.20;;
8893;SDS011;4483;48.622;9.230;2023-07-31T07:02:58;2.08;;;1.40;;
8893;SDS011;4483;48.622;9.230;2023-07-31T07:05:25;3.15;;;1.70;;
8893;SDS011;4483;48.622;9.230;2023-07-31T07:07:51;3.00;;;1.63;;
8893;SDS011;4483;48.622;9.230;2023-07-31T07:10:19;1.75;;;1.50;;
8893;SDS011;4483;48.622;9.230;2023-07-31T07:12:46;1.73;;;1.27;;
8893;SDS011;4483;48.622;9.230;2023-07-31T07:15:13;1.73;;;1.55;;
8893;SDS011;4483;48.622;9.230;2023-07-31T07:17:40;3.00;;;1.42;;
8893;SDS011;4483;48.622;9.230;2023-07-31T07:20:07;1.70;;;1.60;;
8893;SDS011;4483;48.622;9.230;2023-07-31T07:22:34;3.25;;;1.50;;
8893;SDS011;4483;48.622;9.230;2023-07-31T07:25:01;3.88;;;1.77;;
8893;SDS011;4483;48.622;9.230;2023-07-31T07:27:29;3.40;;;1.70;;
8893;SDS011;4483;48.622;9.230;2023-07-31T07:29:56;2.85;;;1.50;;
8893;SDS011;4483;48.622;9.230;2023-07-31T07:32:22;3.75;;;1.55;;
8893;SDS011;4483;48.622;9.230;2023-07-31T07:34:49;2.47;;;1.55;;
8893;SDS011;4483;48.622;9.230;2023-07-31T07:37:16;4.75;;;1.80;;
8893;SDS011;4483;48.622;9.230;2023-07-31T07:39:42;3.88;;;1.45;;
8893;SDS011;4483;48.622;9.230;2023-07-31T07:42:10;6.15;;;1.60;;
8893;SDS011;4483;48.622;9.230;2023-07-31T07:44:38;4.03;;;1.65;;
8893;SDS011;4483;48.622;9.230;2023-07-31T07:47:05;3.80;;;1.85;;
8893;SDS011;4483;48.622;9.230;2023-07-31T07:49:32;2.35;;;1.77;;
8893;SDS011;4483;48.622;9.230;2023-07-31T07:51:59;4.20;;;1.88;;
8893;SDS011;4483;48.622;9.230;2023-07-31T07:54:25;2.45;;;1.48;;
8893;SDS011;4483;48.622;9.230;2023-07-31T07:56:52;4.13;;;1.63;;
8893;SDS011;4483;48.622;9.230;2023-07-31T07:59:19;2.53;;;1.75;;
8893;SDS011;4483;48.622;9.230;2023-07-31T08:01:47;1.98;;;1.73;;
8893;SDS011;4483;48.622;9.230;2023-07-31T08:04:13;2.83;;;1.80;;
8893;SDS011;4483;48.622;9.230;2023-07-31T08:06:40;3.40;;;1.80;;
8893;SDS011;4483;48.622;9.230;2023-07-31T08:09:06;4.47;;;2.03;;
8893;SDS011;4483;48.622;9.230;2023-07-31T08:11:34;2.28;;;1.50;;
8893;SDS011;4483;48.622;9.230;2023-07-31T08:14:01;3.40;;;1.45;;
8893;SDS011;4483;48.622;9.230;2023-07-31T08:16:28;3.60;;;1.85;;
8893;SDS011;4483;48.622;9.230;2023-07-31T08:18:56;4.55;;;2.22;;
8893;SDS011;4483;48.622;9.230;2023-07-31T08:21:22;3.00;;;1.50;;
8893;SDS011;4483;48.622;9.230;2023-07-31T08:23:49;2.00;;;1.45;;
8893;SDS011;4483;48.622;9.230;2023-07-31T08:26:16;4.68;;;1.90;;
8893;SDS011;4483;48.622;9.230;2023-07-31T08:28:43;3.80;;;1.85;;
8893;SDS011;4483;48.622;9.230;2023-07-31T08:31:09;3.70;;;2.05;;
8893;SDS011;4483;48.622;9.230;2023-07-31T08:33:37;10.05;;;2.20;;
8893;SDS011;4483;48.622;9.230;2023-07-31T08:36:05;3.28;;;1.90;;
8893;SDS011;4483;48.622;9.230;2023-07-31T08:38:31;2.47;;;2.20;;
8893;SDS011;4483;48.622;9.230;2023-07-31T08:40:58;4.10;;;1.75;;
8893;SDS011;4483;48.622;9.230;2023-07-31T08:43:25;2.22;;;1.60;;
8893;SDS011;4483;48.622;9.230;2023-07-31T08:45:53;5.50;;;2.05;;
8893;SDS011;4483;48.622;9.230;2023-07-31T08:48:20;2.15;;;1.77;;
8893;SDS011;4483;48.622;9.230;2023-07-31T08:50:48;3.00;;;1.73;;
8893;SDS011;4483;48.622;9.230;2023-07-31T08:53:16;2.75;;;1.90;;
8893;SDS011;4483;48.622;9.230;2023-07-31T08:55:44;2.47;;;2.13;;
8893;SDS011;4483;48.622;9.230;2023-07-31T08:58:10;2.92;;;1.80;;
8893;SDS011;4483;48.622;9.230;2023-07-31T09:00:39;1.90;;;1.67;;
8893;SDS011;4483;48.622;9.230;2023-07-31T09:03:07;2.72;;;2.10;;
8893;SDS011;4483;48.622;9.230;2023-07-31T09:05:36;4.50;;;1.70;;
8893;SDS011;4483;48.622;9.230;2023-07-31T09:08:06;2.35;;;1.60;;
8893;SDS011;4483;48.622;9.230;2023-07-31T09:10:36;2.60;;;1.73;;
8893;SDS011;4483;48.622;9.230;2023-07-31T09:13:07;1.92;;;1.60;;
8893;SDS011;4483;48.622;9.230;2023-07-31T09:15:34;3.10;;;1.70;;
8893;SDS011;4483;48.622;9.230;2023-07-31T09:18:02;5.00;;;1.90;;
8893;SDS011;4483;48.622;9.230;2023-07-31T09:20:30;3.20;;;1.90;;
8893;SDS011;4483;48.622;9.230;2023-07-31T09:23:00;3.97;;;1.58;;
8893;SDS011;4483;48.622;9.230;2023-07-31T09:25:32;5.85;;;2.08;;
8893;SDS011;4483;48.622;9.230;2023-07-31T09:28:00;4.72;;;2.10;;
8893;SDS011;4483;48.622;9.230;2023-07-31T09:30:28;5.65;;;1.77;;
8893;SDS011;4483;48.622;9.230;2023-07-31T09:33:00;3.55;;;2.35;;
8893;SDS011;4483;48.622;9.230;2023-07-31T09:35:28;2.63;;;1.70;;
8893;SDS011;4483;48.622;9.230;2023-07-31T09:37:57;5.32;;;2.05;;
8893;SDS011;4483;48.622;9.230;2023-07-31T09:40:26;4.70;;;2.05;;
8893;SDS011;4483;48.622;9.230;2023-07-31T09:42:57;3.15;;;1.92;;
8893;SDS011;4483;48.622;9.230;2023-07-31T09:45:26;6.22;;;2.20;;
8893;SDS011;4483;48.622;9.230;2023-07-31T09:47:53;3.33;;;2.08;;
8893;SDS011;4483;48.622;9.230;2023-07-31T09:50:20;4.15;;;2.33;;
8893;SDS011;4483;48.622;9.230;2023-07-31T09:52:48;5.32;;;2.17;;
8893;SDS011;4483;48.622;9.230;2023-07-31T09:55:15;3.13;;;2.10;;
8893;SDS011;4483;48.622;9.230;2023-07-31T09:57:43;6.40;;;1.92;;
8893;SDS011;4483;48.622;9.230;2023-07-31T10:00:11;2.83;;;1.90;;
8893;SDS011;4483;48.622;9.230;2023-07-31T10:02:41;5.07;;;2.30;;
8893;SDS011;4483;48.622;9.230;2023-07-31T10:05:12;3.35;;;1.95;;
8893;SDS011;4483;48.622;9.230;2023-07-31T10:07:39;5.22;;;1.90;;
8893;SDS011;4483;48.622;9.230;2023-07-31T10:10:08;2.92;;;2.10;;
8893;SDS011;4483;48.622;9.230;2023-07-31T10:12:36;2.60;;;1.73;;
8893;SDS011;4483;48.622;9.230;2023-07-31T10:15:04;3.70;;;1.90;;
8893;SDS011;4483;48.622;9.230;2023-07-31T10:17:31;3.85;;;1.83;;
8893;SDS011;4483;48.622;9.230;2023-07-31T10:20:01;2.80;;;2.03;;
8893;SDS011;4483;48.622;9.230;2023-07-31T10:22:30;7.28;;;2.10;;
8893;SDS011;4483;48.622;9.230;2023-07-31T10:24:57;3.28;;;2.00;;
8893;SDS011;4483;48.622;9.230;2023-07-31T10:27:25;3.55;;;1.95;;
8893;SDS011;4483;48.622;9.230;2023-07-31T10:29:52;3.72;;;2.08;;
8893;SDS011;4483;48.622;9.230;2023-07-31T10:32:21;4.55;;;2.10;;
8893;SDS011;4483;48.622;9.230;2023-07-31T10:34:49;5.10;;;2.08;;
8893;SDS011;4483;48.622;9.230;2023-07-31T10:37:25;4.05;;;2.30;;
8893;SDS011;4483;48.622;9.230;2023-07-31T10:39:57;5.72;;;2.00;;
8893;SDS011;4483;48.622;9.230;2023-07-31T10:42:32;3.05;;;2.00;;
8893;SDS011;4483;48.622;9.230;2023-07-31T10:45:01;5.47;;;2.55;;
8893;SDS011;4483;48.622;9.230;2023-07-31T10:47:29;3.10;;;1.90;;
8893;SDS011;4483;48.622;9.230;2023-07-31T10:52:55;2.50;;;2.17;;
8893;SDS011;4483;48.622;9.230;2023-07-31T10:55:24;3.05;;;1.73;;
8893;SDS011;4483;48.622;9.230;2023-07-31T10:57:53;5.97;;;2.05;;
8893;SDS011;4483;48.622;9.230;2023-07-31T11:00:21;3.05;;;2.10;;
8893;SDS011;4483;48.622;9.230;2023-07-31T11:03:00;3.85;;;2.03;;
8893;SDS011;4483;48.622;9.230;2023-07-31T11:05:48;3.30;;;2.22;;
8893;SDS011;4483;48.622;9.230;2023-07-31T11:08:20;4.05;;;1.92;;
8893;SDS011;4483;48.622;9.230;2023-07-31T11:10:48;2.20;;;2.00;;
8893;SDS011;4483;48.622;9.230;2023-07-31T11:13:16;4.93;;;1.83;;
8893;SDS011;4483;48.622;9.230;2023-07-31T11:15:43;2.70;;;1.63;;
8893;SDS011;4483;48.622;9.230;2023-07-31T11:18:09;2.10;;;1.90;;
8893;SDS011;4483;48.622;9.230;2023-07-31T11:20:37;5.68;;;2.08;;
8893;SDS011;4483;48.622;9.230;2023-07-31T11:23:06;2.80;;;2.03;;
8893;SDS011;4483;48.622;9.230;2023-07-31T11:25:35;2.38;;;1.85;;
8893;SDS011;4483;48.622;9.230;2023-07-31T11:28:04;2.97;;;2.05;;
8893;SDS011;4483;48.622;9.230;2023-07-31T11:30:31;6.53;;;2.30;;
8893;SDS011;4483;48.622;9.230;2023-07-31T11:32:58;3.90;;;2.05;;
8893;SDS011;4483;48.622;9.230;2023-07-31T11:35:28;3.60;;;2.15;;
8893;SDS011;4483;48.622;9.230;2023-07-31T11:37:55;2.72;;;2.10;;
8893;SDS011;4483;48.622;9.230;2023-07-31T11:40:21;1.70;;;1.60;;
8893;SDS011;4483;48.622;9.230;2023-07-31T11:42:55;2.00;;;1.83;;
8893;SDS011;4483;48.622;9.230;2023-07-31T11:45:24;2.10;;;1.90;;
8893;SDS011;4483;48.622;9.230;2023-07-31T11:47:52;2.95;;;1.90;;
8893;SDS011;4483;48.622;9.230;2023-07-31T11:50:20;3.60;;;2.03;;
8893;SDS011;4483;48.622;9.230;2023-07-31T11:52:47;3.67;;;1.95;;
8893;SDS011;4483;48.622;9.230;2023-07-31T11:55:16;3.35;;;2.25;;
8893;SDS011;4483;48.622;9.230;2023-07-31T11:57:43;3.08;;;1.88;;
8893;SDS011;4483;48.622;9.230;2023-07-31T12:00:14;4.00;;;2.03;;
8893;SDS011;4483;48.622;9.230;2023-07-31T12:02:42;3.53;;;2.38;;
8893;SDS011;4483;48.622;9.230;2023-07-31T12:05:10;3.50;;;2.10;;
8893;SDS011;4483;48.622;9.230;2023-07-31T12:07:44;3.90;;;2.05;;
8893;SDS011;4483;48.622;9.230;2023-07-31T12:10:12;3.00;;;2.47;;
8893;SDS011;4483;48.622;9.230;2023-07-31T12:12:55;3.45;;;2.30;;
8893;SDS011;4483;48.622;9.230;2023-07-31T12:15:29;3.83;;;2.40;;
8893;SDS011;4483;48.622;9.230;2023-07-31T12:18:00;3.00;;;2.20;;
8893;SDS011;4483;48.622;9.230;2023-07-31T12:20:26;2.85;;;2.00;;
8893;SDS011;4483;48.622;9.230;2023-07-31T12:22:55;2.97;;;2.22;;
8893;SDS011;4483;48.622;9.230;2023-07-31T12:25:28;2.95;;;2.10;;
8893;SDS011;4483;48.622;9.230;2023-07-31T12:27:55;3.88;;;2.30;;
8893;SDS011;4483;48.622;9.230;2023-07-31T12:30:31;2.38;;;2.15;;
8893;SDS011;4483;48.622;9.230;2023-07-31T12:33:02;2.67;;;2.28;;
8893;SDS011;4483;48.622;9.230;2023-07-31T12:35:34;4.03;;;2.72;;
8893;SDS011;4483;48.622;9.230;2023-07-31T12:38:01;2.30;;;2.10;;
8893;SDS011;4483;48.622;9.230;2023-07-31T12:40:28;2.83;;;2.20;;
8893;SDS011;4483;48.622;9.230;2023-07-31T12:42:55;2.13;;;1.95;;
8893;SDS011;4483;48.622;9.230;2023-07-31T12:45:21;11.38;;;2.13;;
8893;SDS011;4483;48.622;9.230;2023-07-31T12:47:49;3.92;;;2.60;;
8893;SDS011;4483;48.622;9.230;2023-07-31T12:50:16;3.47;;;2.08;;
8893;SDS011;4483;48.622;9.230;2023-07-31T12:52:43;3.83;;;2.35;;
8893;SDS011;4483;48.622;9.230;2023-07-31T12:55:09;6.88;;;2.50;;
8893;SDS011;4483;48.622;9.230;2023-07-31T12:57:36;3.05;;;2.42;;
8893;SDS011;4483;48.622;9.230;2023-07-31T13:00:03;3.13;;;2.38;;
8893;SDS011;4483;48.622;9.230;2023-07-31T13:02:31;2.60;;;2.05;;
8893;SDS011;4483;48.622;9.230;2023-07-31T13:04:59;2.42;;;2.03;;
8893;SDS011;4483;48.622;9.230;2023-07-31T13:07:26;2.60;;;2.20;;
8893;SDS011;4483;48.622;9.230;2023-07-31T13:09:53;2.90;;;2.28;;
8893;SDS011;4483;48.622;9.230;2023-07-31T13:12:19;3.15;;;2.10;;
8893;SDS011;4483;48.622;9.230;2023-07-31T13:14:46;3.33;;;2.20;;
8893;SDS011;4483;48.622;9.230;2023-07-31T13:17:13;3.97;;;2.40;;
8893;SDS011;4483;48.622;9.230;2023-07-31T13:19:39;3.40;;;2.22;;
8893;SDS011;4483;48.622;9.230;2023-07-31T13:22:07;2.40;;;2.00;;
8893;SDS011;4483;48.622;9.230;2023-07-31T13:24:34;5.35;;;2.60;;
8893;SDS011;4483;48.622;9.230;2023-07-31T13:27:00;3.50;;;2.47;;
8893;SDS011;4483;48.622;9.230;2023-07-31T13:29:27;3.90;;;2.20;;
8893;SDS011;4483;48.622;9.230;2023-07-31T13:31:55;8.60;;;2.00;;
8893;SDS011;4483;48.622;9.230;2023-07-31T13:34:21;3.60;;;2.35;;
8893;SDS011;4483;48.622;9.230;2023-07-31T13:36:48;4.50;;;2.15;;
8893;SDS011;4483;48.622;9.230;2023-07-31T13:39:16;4.57;;;2.30;;
8893;SDS011;4483;48.622;9.230;2023-07-31T13:41:43;4.07;;;2.10;;
8893;SDS011;4483;48.622;9.230;2023-07-31T13:44:09;2.20;;;2.03;;
8893;SDS011;4483;48.622;9.230;2023-07-31T13:46:36;3.15;;;2.10;;
8893;SDS011;4483;48.622;9.230;2023-07-31T13:49:02;5.75;;;2.25;;
8893;SDS011;4483;48.622;9.230;2023-07-31T13:51:29;5.35;;;2.63;;
8893;SDS011;4483;48.622;9.230;2023-07-31T13:53:56;3.78;;;2.20;;
8893;SDS011;4483;48.622;9.230;2023-07-31T13:56:24;5.80;;;2.55;;
8893;SDS011;4483;48.622;9.230;2023-07-31T13:58:50;2.10;;;2.00;;
8893;SDS011;4483;48.622;9.230;2023-07-31T14:01:17;3.20;;;2.15;;
8893;SDS011;4483;48.622;9.230;2023-07-31T14:03:44;2.20;;;2.00;;
8893;SDS011;4483;48.622;9.230;2023-07-31T14:06:10;2.63;;;1.80;;
8893;SDS011;4483;48.622;9.230;2023-07-31T14:08:37;3.90;;;2.15;;
8893;SDS011;4483;48.622;9.230;2023-07-31T14:11:03;4.75;;;1.88;;
8893;SDS011;4483;48.622;9.230;2023-07-31T14:13:31;4.30;;;2.05;;
8893;SDS011;4483;48.622;9.230;2023-07-31T14:15:58;3.17;;;1.90;;
8893;SDS011;4483;48.622;9.230;2023-07-31T14:18:25;2.17;;;2.00;;
8893;SDS011;4483;48.622;9.230;2023-07-31T14:20:51;2.72;;;2.20;;
8893;SDS011;4483;48.622;9.230;2023-07-31T14:23:18;3.63;;;2.00;;
8893;SDS011;4483;48.622;9.230;2023-07-31T14:25:45;3.50;;;2.10;;
8893;SDS011;4483;48.622;9.230;2023-07-31T14:28:12;4.35;;;2.38;;
8893;SDS011;4483;48.622;9.230;2023-07-31T14:30:40;3.53;;;2.22;;
8893;SDS011;4483;48.622;9.230;2023-07-31T14:33:07;4.60;;;2.30;;
8893;SDS011;4483;48.622;9.230;2023-07-31T14:35:33;4.53;;;2.10;;
8893;SDS011;4483;48.622;9.230;2023-07-31T14:38:01;3.28;;;1.98;;
8893;SDS011;4483;48.622;9.230;2023-07-31T14:40:28;5.47;;;2.13;;
8893;SDS011;4483;48.622;9.230;2023-07-31T14:42:55;5.10;;;2.10;;
8893;SDS011;4483;48.622;9.230;2023-07-31T14:45:21;3.35;;;2.20;;
8893;SDS011;4483;48.622;9.230;2023-07-31T14:47:50;3.80;;;2.30;;
8893;SDS011;4483;48.622;9.230;2023-07-31T14:50:17;4.07;;;2.30;;
8893;SDS011;4483;48.622;9.230;2023-07-31T14:52:44;3.13;;;2.13;;
8893;SDS011;4483;48.622;9.230;2023-07-31T14:55:12;2.55;;;2.00;;
8893;SDS011;4483;48.622;9.230;2023-07-31T14:57:38;2.63;;;2.00;;
8893;SDS011;4483;48.622;9.230;2023-07-31T15:00:05;3.67;;;2.40;;
8893;SDS011;4483;48.622;9.230;2023-07-31T15:02:33;2.72;;;2.17;;
8893;SDS011;4483;48.622;9.230;2023-07-31T15:05:02;6.57;;;2.42;;
8893;SDS011;4483;48.622;9.230;2023-07-31T15:07:30;2.30;;;2.10;;
8893;SDS011;4483;48.622;9.230;2023-07-31T15:09:57;2.83;;;2.33;;
8893;SDS011;4483;48.622;9.230;2023-07-31T15:12:25;6.68;;;2.47;;
8893;SDS011;4483;48.622;9.230;2023-07-31T15:14:51;3.42;;;2.20;;
8893;SDS011;4483;48.622;9.230;2023-07-31T15:17:19;2.50;;;2.30;;
8893;SDS011;4483;48.622;9.230;2023-07-31T15:19:46;3.38;;;2.08;;